latitud = 43° 31' 23''N | Longitud = 005° 37' 16''W

Estación Meteorológica de Gijón Surf Gijón - Asturias
26 metros sobre el nivel del mar | 85,3018 feet above sea level

Surf en Gijón

Una variedad de surf de pie es el paddle board. Otra forma importante de surfear es el body board, cuando un surfista monta una ola en un bodyboard, ya sea acostado sobre su vientre, cayendo de rodillas o, a veces, incluso de pie sobre una tabla de bodyboard. Otros tipos de surf incluyen kneeboard, surf matting (montar colchonetas inflables) y el uso de láminas. El surf corporal, en el que la ola se navega sin una tabla, es muy común que el surfista utilice el propio cuerpo del surfista, y algunos lo consideran la forma más pura de surfear.

Fecha, hora, temperatura, dirección y velocidad del viento, humedad y presión.

  • 12-12-2018 18:00:00 | 12.50°C | Nordeste |5.00 km/h | 72.00% | 1010.40 hPa
  • 12-12-2018 17:00:00 | 12.80°C | Sudeste |6.00 km/h | 71.00% | 1010.50 hPa
  • 12-12-2018 16:00:00 | 13.20°C | Sudeste |3.00 km/h | 74.00% | 1012.20 hPa
  • 12-12-2018 15:00:00 | 13.40°C | Este |5.00 km/h | 71.00% | 1013.80 hPa
  • 12-12-2018 13:00:00 | 0.00°C | 0 |0.00 km/h | 0.00% | 0.00 hPa
  • 12-12-2018 12:00:00 | 12.80°C | Calma |0.00 km/h | 82.00% | 1017.00 hPa
  • 12-12-2018 12:00:00 | 12.80°C | Calma |0.00 km/h | 82.00% | 1017.00 hPa
  • 12-12-2018 11:00:00 | 10.90°C | Calma |0.00 km/h | 91.00% | 1017.30 hPa
  • 12-12-2018 10:00:00 | 10.10°C | Este |3.00 km/h | 93.00% | 1017.90 hPa
  • 12-12-2018 09:00:00 | 10.20°C | Sudeste |3.00 km/h | 92.00% | 1018.30 hPa
  • 12-12-2018 08:00:00 | 10.40°C | Sudeste |4.00 km/h | 90.00% | 1019.10 hPa
  • 12-12-2018 06:00:00 | 11.30°C | Calma |0.00 km/h | 84.00% | 1019.30 hPa
  • 12-12-2018 05:00:00 | 11.70°C | Sudoeste |3.00 km/h | 82.00% | 1019.60 hPa
  • 12-12-2018 04:00:00 | 11.80°C | Sudoeste |4.00 km/h | 80.00% | 1019.80 hPa
  • 12-12-2018 03:00:00 | 12.10°C | Sudoeste |4.00 km/h | 77.00% | 1020.10 hPa
  • 12-12-2018 02:00:00 | 12.30°C | Sudoeste |3.00 km/h | 76.00% | 1019.70 hPa
  • 12-12-2018 01:00:00 | 12.20°C | Sudoeste |3.00 km/h | 78.00% | 1019.90 hPa
  • 12-12-2018 00:00:00 | 12.00°C | Sudoeste |5.00 km/h | 83.00% | 1019.90 hPa
  • 11-12-2018 23:00:00 | 12.10°C | Sudoeste |6.00 km/h | 88.00% | 1019.90 hPa
  • 11-12-2018 22:00:00 | 10.40°C | Sudoeste |4.00 km/h | 86.00% | 1019.90 hPa
  • 11-12-2018 21:00:00 | 8.90°C | Noroeste |3.00 km/h | 93.00% | 1018.80 hPa
  • 11-12-2018 20:00:00 | 8.20°C | Sudeste |6.00 km/h | 95.00% | 1018.70 hPa
  • 11-12-2018 19:00:00 | 9.70°C | Sudeste |5.00 km/h | 90.00% | 1018.90 hPa
  • 11-12-2018 18:00:00 | 11.40°C | Sudeste |5.00 km/h | 90.00% | 1018.30 hPa

    • Las mejores playas de Asturias.

      Mapas, coordenadas GPS, viento, marea, noticias de Asturias, fotos y más relacionadas con el mundo Surf..
      https://surf-asturias.com